sensor_id;sensor_type;location;lat;lon;timestamp;pressure;altitude;pressure_sealevel;temperature
24740;BMP280;45234;48.148;17.128;2023-04-03T00:00:51;100259.13;;;6.73
24740;BMP280;45234;48.148;17.128;2023-04-03T00:03:19;100251.44;;;6.89
24740;BMP280;45234;48.148;17.128;2023-04-03T00:05:47;100259.16;;;6.89
24740;BMP280;45234;48.148;17.128;2023-04-03T00:08:14;100262.03;;;6.78
24740;BMP280;45234;48.148;17.128;2023-04-03T00:10:41;100253.19;;;6.73
24740;BMP280;45234;48.148;17.128;2023-04-03T00:13:08;100264.63;;;6.70
24740;BMP280;45234;48.148;17.128;2023-04-03T00:15:36;100262.38;;;6.75
24740;BMP280;45234;48.148;17.128;2023-04-03T00:18:05;100261.09;;;6.71
24740;BMP280;45234;48.148;17.128;2023-04-03T00:20:32;100257.88;;;6.85
24740;BMP280;45234;48.148;17.128;2023-04-03T00:23:00;100264.31;;;6.89
24740;BMP280;45234;48.148;17.128;2023-04-03T00:25:28;100257.53;;;6.72
24740;BMP280;45234;48.148;17.128;2023-04-03T00:27:55;100255.78;;;6.89
24740;BMP280;45234;48.148;17.128;2023-04-03T00:30:23;100258.50;;;6.79
24740;BMP280;45234;48.148;17.128;2023-04-03T00:32:51;100263.38;;;6.82
24740;BMP280;45234;48.148;17.128;2023-04-03T00:35:20;100264.94;;;6.67
24740;BMP280;45234;48.148;17.128;2023-04-03T00:37:48;100265.44;;;6.71
24740;BMP280;45234;48.148;17.128;2023-04-03T00:40:16;100266.72;;;6.75
24740;BMP280;45234;48.148;17.128;2023-04-03T00:42:47;100259.78;;;6.67
24740;BMP280;45234;48.148;17.128;2023-04-03T00:45:38;100262.34;;;6.59
24740;BMP280;45234;48.148;17.128;2023-04-03T00:48:11;100272.50;;;6.68
24740;BMP280;45234;48.148;17.128;2023-04-03T00:50:42;100272.66;;;6.67
24740;BMP280;45234;48.148;17.128;2023-04-03T00:53:14;100264.00;;;6.84
24740;BMP280;45234;48.148;17.128;2023-04-03T00:55:42;100271.25;;;6.81
24740;BMP280;45234;48.148;17.128;2023-04-03T00:58:10;100282.63;;;6.62
24740;BMP280;45234;48.148;17.128;2023-04-03T01:00:40;100279.06;;;6.55
24740;BMP280;45234;48.148;17.128;2023-04-03T01:03:08;100283.59;;;6.69
24740;BMP280;45234;48.148;17.128;2023-04-03T01:05:37;100274.41;;;6.66
24740;BMP280;45234;48.148;17.128;2023-04-03T01:08:04;100277.47;;;6.62
24740;BMP280;45234;48.148;17.128;2023-04-03T01:10:32;100273.31;;;6.69
24740;BMP280;45234;48.148;17.128;2023-04-03T01:13:01;100276.00;;;6.51
24740;BMP280;45234;48.148;17.128;2023-04-03T01:15:28;100275.31;;;6.41
24740;BMP280;45234;48.148;17.128;2023-04-03T01:18:02;100281.59;;;6.39
24740;BMP280;45234;48.148;17.128;2023-04-03T01:28:25;100278.56;;;6.43
24740;BMP280;45234;48.148;17.128;2023-04-03T01:33:28;100273.59;;;6.58
24740;BMP280;45234;48.148;17.128;2023-04-03T01:35:56;100276.50;;;6.63
24740;BMP280;45234;48.148;17.128;2023-04-03T01:38:23;100282.59;;;6.46
24740;BMP280;45234;48.148;17.128;2023-04-03T01:40:50;100290.47;;;6.44
24740;BMP280;45234;48.148;17.128;2023-04-03T01:43:17;100269.50;;;6.31
24740;BMP280;45234;48.148;17.128;2023-04-03T01:45:45;100280.91;;;6.28
24740;BMP280;45234;48.148;17.128;2023-04-03T01:48:13;100281.56;;;6.30
24740;BMP280;45234;48.148;17.128;2023-04-03T01:50:40;100299.91;;;6.27
24740;BMP280;45234;48.148;17.128;2023-04-03T01:53:07;100293.53;;;6.14
24740;BMP280;45234;48.148;17.128;2023-04-03T01:55:34;100297.97;;;6.29
24740;BMP280;45234;48.148;17.128;2023-04-03T01:58:01;100297.25;;;6.19
24740;BMP280;45234;48.148;17.128;2023-04-03T02:00:28;100295.25;;;6.05
24740;BMP280;45234;48.148;17.128;2023-04-03T02:02:55;100296.47;;;5.93
24740;BMP280;45234;48.148;17.128;2023-04-03T02:05:22;100286.72;;;5.96
24740;BMP280;45234;48.148;17.128;2023-04-03T02:07:50;100289.72;;;5.92
24740;BMP280;45234;48.148;17.128;2023-04-03T02:10:18;100282.63;;;5.86
24740;BMP280;45234;48.148;17.128;2023-04-03T02:12:45;100284.09;;;5.88
24740;BMP280;45234;48.148;17.128;2023-04-03T02:15:12;100293.97;;;6.01
24740;BMP280;45234;48.148;17.128;2023-04-03T02:17:39;100293.25;;;6.17
24740;BMP280;45234;48.148;17.128;2023-04-03T02:20:07;100292.03;;;6.03
24740;BMP280;45234;48.148;17.128;2023-04-03T02:22:35;100299.16;;;6.09
24740;BMP280;45234;48.148;17.128;2023-04-03T02:25:02;100289.84;;;6.16
24740;BMP280;45234;48.148;17.128;2023-04-03T02:27:29;100287.63;;;6.21
24740;BMP280;45234;48.148;17.128;2023-04-03T02:29:55;100296.50;;;6.35
24740;BMP280;45234;48.148;17.128;2023-04-03T02:32:22;100293.06;;;6.18
24740;BMP280;45234;48.148;17.128;2023-04-03T02:34:50;100293.72;;;6.20
24740;BMP280;45234;48.148;17.128;2023-04-03T02:37:17;100288.00;;;6.34
24740;BMP280;45234;48.148;17.128;2023-04-03T02:39:45;100300.59;;;6.46
24740;BMP280;45234;48.148;17.128;2023-04-03T02:42:12;100299.31;;;6.42
24740;BMP280;45234;48.148;17.128;2023-04-03T02:44:41;100301.81;;;6.33
24740;BMP280;45234;48.148;17.128;2023-04-03T02:47:09;100303.72;;;6.23
24740;BMP280;45234;48.148;17.128;2023-04-03T02:49:37;100305.31;;;6.24
24740;BMP280;45234;48.148;17.128;2023-04-03T02:52:04;100301.44;;;6.20
24740;BMP280;45234;48.148;17.128;2023-04-03T02:54:31;100300.91;;;6.09
24740;BMP280;45234;48.148;17.128;2023-04-03T02:57:04;100302.06;;;6.14
24740;BMP280;45234;48.148;17.128;2023-04-03T02:59:31;100313.00;;;6.16
24740;BMP280;45234;48.148;17.128;2023-04-03T03:01:58;100313.31;;;6.13
24740;BMP280;45234;48.148;17.128;2023-04-03T03:04:25;100305.25;;;6.08
24740;BMP280;45234;48.148;17.128;2023-04-03T03:06:52;100320.44;;;6.19
24740;BMP280;45234;48.148;17.128;2023-04-03T03:09:19;100313.03;;;6.24
24740;BMP280;45234;48.148;17.128;2023-04-03T03:11:46;100319.47;;;6.20
24740;BMP280;45234;48.148;17.128;2023-04-03T03:14:13;100326.34;;;6.12
24740;BMP280;45234;48.148;17.128;2023-04-03T03:16:40;100337.56;;;6.28
24740;BMP280;45234;48.148;17.128;2023-04-03T03:19:07;100326.22;;;6.21
24740;BMP280;45234;48.148;17.128;2023-04-03T03:21:35;100324.72;;;6.11
24740;BMP280;45234;48.148;17.128;2023-04-03T03:24:02;100327.06;;;5.96
24740;BMP280;45234;48.148;17.128;2023-04-03T03:26:29;100334.41;;;5.91
24740;BMP280;45234;48.148;17.128;2023-04-03T03:28:56;100331.25;;;6.05
24740;BMP280;45234;48.148;17.128;2023-04-03T03:31:23;100334.03;;;6.03
24740;BMP280;45234;48.148;17.128;2023-04-03T03:33:50;100333.66;;;5.98
24740;BMP280;45234;48.148;17.128;2023-04-03T03:36:18;100338.25;;;6.13
24740;BMP280;45234;48.148;17.128;2023-04-03T03:38:45;100334.72;;;6.14
24740;BMP280;45234;48.148;17.128;2023-04-03T03:41:12;100342.47;;;6.22
24740;BMP280;45234;48.148;17.128;2023-04-03T03:43:41;100337.47;;;6.20
24740;BMP280;45234;48.148;17.128;2023-04-03T03:46:09;100338.63;;;6.26
24740;BMP280;45234;48.148;17.128;2023-04-03T03:48:36;100338.78;;;6.24
24740;BMP280;45234;48.148;17.128;2023-04-03T03:51:03;100346.34;;;6.18
24740;BMP280;45234;48.148;17.128;2023-04-03T03:53:34;100337.09;;;6.07
24740;BMP280;45234;48.148;17.128;2023-04-03T03:56:05;100337.56;;;6.02
24740;BMP280;45234;48.148;17.128;2023-04-03T03:58:36;100331.00;;;6.08
24740;BMP280;45234;48.148;17.128;2023-04-03T04:01:04;100334.16;;;6.02
24740;BMP280;45234;48.148;17.128;2023-04-03T04:03:40;100348.13;;;6.17
24740;BMP280;45234;48.148;17.128;2023-04-03T04:06:10;100343.50;;;6.03
24740;BMP280;45234;48.148;17.128;2023-04-03T04:08:38;100348.34;;;6.06
24740;BMP280;45234;48.148;17.128;2023-04-03T04:11:07;100350.56;;;6.01
24740;BMP280;45234;48.148;17.128;2023-04-03T04:13:35;100341.50;;;5.89
24740;BMP280;45234;48.148;17.128;2023-04-03T04:16:03;100344.78;;;5.99
24740;BMP280;45234;48.148;17.128;2023-04-03T04:18:32;100349.53;;;5.94
24740;BMP280;45234;48.148;17.128;2023-04-03T04:20:58;100348.44;;;5.96
24740;BMP280;45234;48.148;17.128;2023-04-03T04:23:26;100358.47;;;5.82
24740;BMP280;45234;48.148;17.128;2023-04-03T04:25:53;100350.34;;;5.94
24740;BMP280;45234;48.148;17.128;2023-04-03T04:28:21;100353.31;;;5.82
24740;BMP280;45234;48.148;17.128;2023-04-03T04:30:52;100353.03;;;5.85
24740;BMP280;45234;48.148;17.128;2023-04-03T04:33:21;100355.63;;;5.85
24740;BMP280;45234;48.148;17.128;2023-04-03T04:35:48;100364.31;;;5.92
24740;BMP280;45234;48.148;17.128;2023-04-03T04:38:17;100364.25;;;5.84
24740;BMP280;45234;48.148;17.128;2023-04-03T04:40:45;100359.13;;;5.84
24740;BMP280;45234;48.148;17.128;2023-04-03T04:43:12;100364.47;;;5.90
24740;BMP280;45234;48.148;17.128;2023-04-03T04:45:42;100370.50;;;5.99
24740;BMP280;45234;48.148;17.128;2023-04-03T04:48:10;100375.94;;;5.96
24740;BMP280;45234;48.148;17.128;2023-04-03T04:50:37;100366.59;;;5.95
24740;BMP280;45234;48.148;17.128;2023-04-03T04:53:04;100373.50;;;5.94
24740;BMP280;45234;48.148;17.128;2023-04-03T04:55:30;100369.16;;;5.95
24740;BMP280;45234;48.148;17.128;2023-04-03T04:57:57;100380.84;;;6.07
24740;BMP280;45234;48.148;17.128;2023-04-03T05:00:24;100377.72;;;5.95
24740;BMP280;45234;48.148;17.128;2023-04-03T05:02:52;100371.38;;;5.90
24740;BMP280;45234;48.148;17.128;2023-04-03T05:05:19;100385.94;;;5.81
24740;BMP280;45234;48.148;17.128;2023-04-03T05:07:46;100380.78;;;5.99
24740;BMP280;45234;48.148;17.128;2023-04-03T05:10:13;100361.56;;;6.11
24740;BMP280;45234;48.148;17.128;2023-04-03T05:12:41;100366.88;;;5.92
24740;BMP280;45234;48.148;17.128;2023-04-03T05:15:08;100368.94;;;6.06
24740;BMP280;45234;48.148;17.128;2023-04-03T05:17:36;100371.56;;;6.14
24740;BMP280;45234;48.148;17.128;2023-04-03T05:20:05;100371.59;;;6.22
24740;BMP280;45234;48.148;17.128;2023-04-03T05:22:33;100373.59;;;6.36
24740;BMP280;45234;48.148;17.128;2023-04-03T05:25:06;100373.63;;;6.71
24740;BMP280;45234;48.148;17.128;2023-04-03T05:27:34;100380.97;;;7.08
24740;BMP280;45234;48.148;17.128;2023-04-03T05:30:01;100383.88;;;7.05
24740;BMP280;45234;48.148;17.128;2023-04-03T05:32:30;100387.75;;;7.09
24740;BMP280;45234;48.148;17.128;2023-04-03T05:35:32;100388.00;;;6.97
24740;BMP280;45234;48.148;17.128;2023-04-03T05:38:02;100374.44;;;6.87
24740;BMP280;45234;48.148;17.128;2023-04-03T05:40:30;100389.91;;;6.87
24740;BMP280;45234;48.148;17.128;2023-04-03T05:42:57;100387.94;;;6.73
24740;BMP280;45234;48.148;17.128;2023-04-03T05:45:28;100388.19;;;6.54
24740;BMP280;45234;48.148;17.128;2023-04-03T05:47:57;100386.56;;;6.53
24740;BMP280;45234;48.148;17.128;2023-04-03T05:50:24;100392.66;;;6.44
24740;BMP280;45234;48.148;17.128;2023-04-03T05:52:54;100384.97;;;6.52
24740;BMP280;45234;48.148;17.128;2023-04-03T05:55:24;100390.22;;;6.42
24740;BMP280;45234;48.148;17.128;2023-04-03T05:57:51;100389.50;;;6.58
24740;BMP280;45234;48.148;17.128;2023-04-03T06:00:20;100386.78;;;6.33
24740;BMP280;45234;48.148;17.128;2023-04-03T06:02:56;100383.25;;;6.34
24740;BMP280;45234;48.148;17.128;2023-04-03T06:05:24;100391.06;;;6.51
24740;BMP280;45234;48.148;17.128;2023-04-03T06:07:51;100381.09;;;6.56
24740;BMP280;45234;48.148;17.128;2023-04-03T06:10:18;100390.44;;;6.57
24740;BMP280;45234;48.148;17.128;2023-04-03T06:12:44;100402.31;;;6.50
24740;BMP280;45234;48.148;17.128;2023-04-03T06:15:11;100400.28;;;6.27
24740;BMP280;45234;48.148;17.128;2023-04-03T06:17:39;100403.75;;;6.18
24740;BMP280;45234;48.148;17.128;2023-04-03T06:20:07;100410.19;;;6.22
24740;BMP280;45234;48.148;17.128;2023-04-03T06:22:34;100406.06;;;6.03
24740;BMP280;45234;48.148;17.128;2023-04-03T06:25:02;100411.72;;;6.07
24740;BMP280;45234;48.148;17.128;2023-04-03T06:27:43;100414.09;;;5.83
24740;BMP280;45234;48.148;17.128;2023-04-03T06:30:11;100421.31;;;5.97
24740;BMP280;45234;48.148;17.128;2023-04-03T06:32:40;100421.53;;;5.86
24740;BMP280;45234;48.148;17.128;2023-04-03T06:35:07;100430.25;;;5.93
24740;BMP280;45234;48.148;17.128;2023-04-03T06:37:35;100423.09;;;6.48
24740;BMP280;45234;48.148;17.128;2023-04-03T06:40:02;100430.09;;;7.22
24740;BMP280;45234;48.148;17.128;2023-04-03T06:42:29;100426.66;;;7.56
24740;BMP280;45234;48.148;17.128;2023-04-03T06:45:07;100426.00;;;8.58
24740;BMP280;45234;48.148;17.128;2023-04-03T06:47:36;100450.38;;;9.03
24740;BMP280;45234;48.148;17.128;2023-04-03T06:50:03;100450.66;;;9.08
24740;BMP280;45234;48.148;17.128;2023-04-03T06:52:30;100449.25;;;9.28
24740;BMP280;45234;48.148;17.128;2023-04-03T06:54:57;100448.19;;;9.45
24740;BMP280;45234;48.148;17.128;2023-04-03T06:57:26;100454.59;;;8.95
24740;BMP280;45234;48.148;17.128;2023-04-03T06:59:59;100456.44;;;8.79
24740;BMP280;45234;48.148;17.128;2023-04-03T07:02:26;100468.94;;;9.06
24740;BMP280;45234;48.148;17.128;2023-04-03T07:04:53;100464.91;;;9.04
24740;BMP280;45234;48.148;17.128;2023-04-03T07:07:21;100461.84;;;9.00
24740;BMP280;45234;48.148;17.128;2023-04-03T07:09:48;100468.31;;;9.58
24740;BMP280;45234;48.148;17.128;2023-04-03T07:12:16;100471.50;;;9.83
24740;BMP280;45234;48.148;17.128;2023-04-03T07:14:43;100465.19;;;9.40
24740;BMP280;45234;48.148;17.128;2023-04-03T07:17:10;100476.06;;;9.58
24740;BMP280;45234;48.148;17.128;2023-04-03T07:19:37;100484.63;;;9.36
24740;BMP280;45234;48.148;17.128;2023-04-03T07:22:04;100487.50;;;9.10
24740;BMP280;45234;48.148;17.128;2023-04-03T07:24:34;100481.53;;;9.40
24740;BMP280;45234;48.148;17.128;2023-04-03T07:27:02;100472.28;;;9.15
24740;BMP280;45234;48.148;17.128;2023-04-03T07:29:31;100467.63;;;9.33
24740;BMP280;45234;48.148;17.128;2023-04-03T07:31:59;100450.84;;;9.75
24740;BMP280;45234;48.148;17.128;2023-04-03T07:34:30;100469.22;;;10.76
24740;BMP280;45234;48.148;17.128;2023-04-03T07:36:57;100475.75;;;10.57
24740;BMP280;45234;48.148;17.128;2023-04-03T07:39:24;100469.53;;;9.85
24740;BMP280;45234;48.148;17.128;2023-04-03T07:41:51;100473.84;;;9.70
24740;BMP280;45234;48.148;17.128;2023-04-03T07:44:18;100475.06;;;9.82
24740;BMP280;45234;48.148;17.128;2023-04-03T07:46:45;100477.41;;;10.06
24740;BMP280;45234;48.148;17.128;2023-04-03T07:49:13;100473.81;;;10.45
24740;BMP280;45234;48.148;17.128;2023-04-03T07:51:42;100472.25;;;10.65
24740;BMP280;45234;48.148;17.128;2023-04-03T07:54:09;100471.16;;;11.10
24740;BMP280;45234;48.148;17.128;2023-04-03T07:56:36;100481.41;;;10.97
24740;BMP280;45234;48.148;17.128;2023-04-03T07:59:03;100485.50;;;11.06
24740;BMP280;45234;48.148;17.128;2023-04-03T08:01:29;100483.34;;;10.59
24740;BMP280;45234;48.148;17.128;2023-04-03T08:03:59;100482.69;;;10.72
24740;BMP280;45234;48.148;17.128;2023-04-03T08:06:31;100511.91;;;11.31
24740;BMP280;45234;48.148;17.128;2023-04-03T08:09:12;100493.00;;;10.65
24740;BMP280;45234;48.148;17.128;2023-04-03T08:11:44;100495.88;;;10.41
24740;BMP280;45234;48.148;17.128;2023-04-03T08:14:12;100497.88;;;10.01
24740;BMP280;45234;48.148;17.128;2023-04-03T08:16:44;100499.91;;;9.91
24740;BMP280;45234;48.148;17.128;2023-04-03T08:19:12;100492.63;;;10.39
24740;BMP280;45234;48.148;17.128;2023-04-03T08:21:51;100499.59;;;10.23
24740;BMP280;45234;48.148;17.128;2023-04-03T08:24:17;100496.84;;;9.19
24740;BMP280;45234;48.148;17.128;2023-04-03T08:26:44;100507.34;;;8.78
24740;BMP280;45234;48.148;17.128;2023-04-03T08:29:11;100487.38;;;8.56
24740;BMP280;45234;48.148;17.128;2023-04-03T08:31:38;100493.22;;;8.34
24740;BMP280;45234;48.148;17.128;2023-04-03T08:34:05;100493.56;;;8.22
24740;BMP280;45234;48.148;17.128;2023-04-03T08:36:32;100506.28;;;8.48
24740;BMP280;45234;48.148;17.128;2023-04-03T08:38:59;100497.44;;;8.51
24740;BMP280;45234;48.148;17.128;2023-04-03T08:41:40;100511.16;;;8.51
24740;BMP280;45234;48.148;17.128;2023-04-03T08:44:18;100473.06;;;8.84
24740;BMP280;45234;48.148;17.128;2023-04-03T08:49:28;100478.28;;;9.15
24740;BMP280;45234;48.148;17.128;2023-04-03T08:51:59;100468.88;;;9.45
24740;BMP280;45234;48.148;17.128;2023-04-03T08:54:34;100465.84;;;9.79
24740;BMP280;45234;48.148;17.128;2023-04-03T08:57:03;100474.50;;;9.72
24740;BMP280;45234;48.148;17.128;2023-04-03T08:59:36;100491.91;;;9.55
24740;BMP280;45234;48.148;17.128;2023-04-03T09:02:25;100480.28;;;8.97
24740;BMP280;45234;48.148;17.128;2023-04-03T09:04:55;100465.28;;;8.45
24740;BMP280;45234;48.148;17.128;2023-04-03T09:07:33;100489.28;;;8.70
24740;BMP280;45234;48.148;17.128;2023-04-03T09:10:03;100483.41;;;8.92
24740;BMP280;45234;48.148;17.128;2023-04-03T09:12:46;100458.31;;;8.62
24740;BMP280;45234;48.148;17.128;2023-04-03T09:15:18;100472.41;;;8.51
24740;BMP280;45234;48.148;17.128;2023-04-03T09:18:04;100492.09;;;8.91
24740;BMP280;45234;48.148;17.128;2023-04-03T09:25:33;100482.81;;;8.82
24740;BMP280;45234;48.148;17.128;2023-04-03T09:28:02;100468.28;;;8.73
24740;BMP280;45234;48.148;17.128;2023-04-03T09:30:29;100485.47;;;8.97
24740;BMP280;45234;48.148;17.128;2023-04-03T09:32:58;100482.72;;;8.99
24740;BMP280;45234;48.148;17.128;2023-04-03T09:35:30;100483.09;;;8.79
24740;BMP280;45234;48.148;17.128;2023-04-03T09:40:43;100481.06;;;8.58
24740;BMP280;45234;48.148;17.128;2023-04-03T09:43:29;100491.59;;;8.49
24740;BMP280;45234;48.148;17.128;2023-04-03T09:49:12;100479.63;;;8.48
24740;BMP280;45234;48.148;17.128;2023-04-03T09:51:46;100475.09;;;8.58
24740;BMP280;45234;48.148;17.128;2023-04-03T09:54:33;100478.97;;;8.54
24740;BMP280;45234;48.148;17.128;2023-04-03T09:57:10;100467.06;;;8.53
24740;BMP280;45234;48.148;17.128;2023-04-03T09:59:56;100456.38;;;8.56
24740;BMP280;45234;48.148;17.128;2023-04-03T10:02:42;100471.63;;;8.26
24740;BMP280;45234;48.148;17.128;2023-04-03T10:05:39;100461.13;;;8.28
24740;BMP280;45234;48.148;17.128;2023-04-03T10:10:48;100490.53;;;9.13
24740;BMP280;45234;48.148;17.128;2023-04-03T10:13:29;100487.84;;;8.59
24740;BMP280;45234;48.148;17.128;2023-04-03T10:16:08;100505.53;;;7.99
24740;BMP280;45234;48.148;17.128;2023-04-03T10:21:57;100483.72;;;7.69
24740;BMP280;45234;48.148;17.128;2023-04-03T10:25:28;100468.75;;;7.89
24740;BMP280;45234;48.148;17.128;2023-04-03T10:46:51;100478.53;;;8.50
24740;BMP280;45234;48.148;17.128;2023-04-03T10:57:38;100498.13;;;7.88
24740;BMP280;45234;48.148;17.128;2023-04-03T11:03:38;100489.06;;;7.84
24740;BMP280;45234;48.148;17.128;2023-04-03T11:06:10;100486.78;;;8.13
24740;BMP280;45234;48.148;17.128;2023-04-03T11:08:50;100472.13;;;8.14
24740;BMP280;45234;48.148;17.128;2023-04-03T11:11:26;100499.03;;;8.44
24740;BMP280;45234;48.148;17.128;2023-04-03T11:14:03;100481.63;;;8.13
24740;BMP280;45234;48.148;17.128;2023-04-03T11:16:39;100483.56;;;7.95
24740;BMP280;45234;48.148;17.128;2023-04-03T11:19:25;100476.16;;;7.92
24740;BMP280;45234;48.148;17.128;2023-04-03T11:25:04;100482.78;;;7.78
24740;BMP280;45234;48.148;17.128;2023-04-03T11:27:46;100492.59;;;8.07
24740;BMP280;45234;48.148;17.128;2023-04-03T11:30:20;100493.56;;;8.14
24740;BMP280;45234;48.148;17.128;2023-04-03T11:35:44;100485.19;;;8.12
24740;BMP280;45234;48.148;17.128;2023-04-03T11:38:25;100489.09;;;8.08
24740;BMP280;45234;48.148;17.128;2023-04-03T11:40:55;100506.09;;;8.58
24740;BMP280;45234;48.148;17.128;2023-04-03T11:43:25;100493.22;;;8.34
24740;BMP280;45234;48.148;17.128;2023-04-03T11:46:03;100487.28;;;8.33
24740;BMP280;45234;48.148;17.128;2023-04-03T11:53:44;100482.28;;;7.91
24740;BMP280;45234;48.148;17.128;2023-04-03T12:04:15;100470.81;;;7.93
24740;BMP280;45234;48.148;17.128;2023-04-03T12:12:34;100481.94;;;7.45
24740;BMP280;45234;48.148;17.128;2023-04-03T12:15:25;100473.03;;;7.31
24740;BMP280;45234;48.148;17.128;2023-04-03T12:17:53;100468.03;;;7.38
24740;BMP280;45234;48.148;17.128;2023-04-03T12:21:13;100475.47;;;6.99
24740;BMP280;45234;48.148;17.128;2023-04-03T12:23:35;100455.78;;;7.32
24740;BMP280;45234;48.148;17.128;2023-04-03T12:26:26;100467.56;;;7.43
24740;BMP280;45234;48.148;17.128;2023-04-03T12:34:43;100462.59;;;7.33
24740;BMP280;45234;48.148;17.128;2023-04-03T12:40:15;100460.03;;;7.74
24740;BMP280;45234;48.148;17.128;2023-04-03T12:48:27;100462.63;;;7.07
24740;BMP280;45234;48.148;17.128;2023-04-03T12:50:56;100473.50;;;7.35
24740;BMP280;45234;48.148;17.128;2023-04-03T12:53:31;100458.66;;;7.21
24740;BMP280;45234;48.148;17.128;2023-04-03T12:56:23;100458.66;;;7.21
24740;BMP280;45234;48.148;17.128;2023-04-03T12:58:52;100458.72;;;7.70
24740;BMP280;45234;48.148;17.128;2023-04-03T13:01:24;100462.00;;;7.88
24740;BMP280;45234;48.148;17.128;2023-04-03T13:03:56;100456.03;;;7.87
24740;BMP280;45234;48.148;17.128;2023-04-03T13:07:00;100464.09;;;8.01
24740;BMP280;45234;48.148;17.128;2023-04-03T13:09:31;100465.50;;;7.71
24740;BMP280;45234;48.148;17.128;2023-04-03T13:12:10;100459.34;;;7.39
24740;BMP280;45234;48.148;17.128;2023-04-03T13:14:38;100457.72;;;7.30
24740;BMP280;45234;48.148;17.128;2023-04-03T13:17:16;100479.28;;;7.21
24740;BMP280;45234;48.148;17.128;2023-04-03T13:19:44;100451.84;;;7.12
24740;BMP280;45234;48.148;17.128;2023-04-03T13:22:36;100455.47;;;7.35
24740;BMP280;45234;48.148;17.128;2023-04-03T13:25:13;100451.94;;;7.52
24740;BMP280;45234;48.148;17.128;2023-04-03T13:27:42;100455.00;;;7.48
24740;BMP280;45234;48.148;17.128;2023-04-03T13:30:21;100450.16;;;7.53
24740;BMP280;45234;48.148;17.128;2023-04-03T13:32:48;100446.47;;;7.47
24740;BMP280;45234;48.148;17.128;2023-04-03T13:35:35;100449.16;;;7.21
24740;BMP280;45234;48.148;17.128;2023-04-03T13:38:20;100440.97;;;7.34
24740;BMP280;45234;48.148;17.128;2023-04-03T13:40:50;100431.28;;;7.28
24740;BMP280;45234;48.148;17.128;2023-04-03T13:43:21;100431.63;;;7.41
24740;BMP280;45234;48.148;17.128;2023-04-03T13:48:40;100432.59;;;8.05
24740;BMP280;45234;48.148;17.128;2023-04-03T13:51:28;100428.91;;;7.75
24740;BMP280;45234;48.148;17.128;2023-04-03T13:54:01;100419.91;;;7.55
24740;BMP280;45234;48.148;17.128;2023-04-03T13:56:38;100422.78;;;7.44
24740;BMP280;45234;48.148;17.128;2023-04-03T14:04:17;100414.75;;;7.55
24740;BMP280;45234;48.148;17.128;2023-04-03T14:06:45;100400.19;;;7.62
24740;BMP280;45234;48.148;17.128;2023-04-03T14:09:14;100402.97;;;7.44
24740;BMP280;45234;48.148;17.128;2023-04-03T14:11:42;100398.72;;;7.35
24740;BMP280;45234;48.148;17.128;2023-04-03T14:14:20;100388.06;;;7.22
24740;BMP280;45234;48.148;17.128;2023-04-03T14:16:58;100391.97;;;7.50
24740;BMP280;45234;48.148;17.128;2023-04-03T14:19:30;100396.47;;;7.40
24740;BMP280;45234;48.148;17.128;2023-04-03T14:22:00;100414.25;;;7.68
24740;BMP280;45234;48.148;17.128;2023-04-03T14:24:27;100411.63;;;7.51
24740;BMP280;45234;48.148;17.128;2023-04-03T14:26:55;100402.28;;;7.58
24740;BMP280;45234;48.148;17.128;2023-04-03T14:29:22;100392.47;;;7.54
24740;BMP280;45234;48.148;17.128;2023-04-03T14:31:50;100388.13;;;7.54
24740;BMP280;45234;48.148;17.128;2023-04-03T14:34:26;100399.41;;;7.45
24740;BMP280;45234;48.148;17.128;2023-04-03T14:36:52;100396.16;;;7.59
24740;BMP280;45234;48.148;17.128;2023-04-03T14:39:20;100428.72;;;7.85
24740;BMP280;45234;48.148;17.128;2023-04-03T14:41:46;100404.91;;;7.67
24740;BMP280;45234;48.148;17.128;2023-04-03T14:44:13;100401.03;;;7.54
24740;BMP280;45234;48.148;17.128;2023-04-03T14:46:43;100400.84;;;7.40
24740;BMP280;45234;48.148;17.128;2023-04-03T14:49:25;100404.75;;;7.44
24740;BMP280;45234;48.148;17.128;2023-04-03T14:51:53;100399.38;;;7.37
24740;BMP280;45234;48.148;17.128;2023-04-03T14:54:22;100401.97;;;7.37
24740;BMP280;45234;48.148;17.128;2023-04-03T14:56:53;100412.28;;;7.70
24740;BMP280;45234;48.148;17.128;2023-04-03T14:59:20;100403.09;;;7.83
24740;BMP280;45234;48.148;17.128;2023-04-03T15:01:48;100393.25;;;7.71
24740;BMP280;45234;48.148;17.128;2023-04-03T15:04:17;100392.94;;;7.57
24740;BMP280;45234;48.148;17.128;2023-04-03T15:06:47;100390.84;;;7.61
24740;BMP280;45234;48.148;17.128;2023-04-03T15:09:26;100390.34;;;7.57
24740;BMP280;45234;48.148;17.128;2023-04-03T15:11:55;100376.50;;;7.34
24740;BMP280;45234;48.148;17.128;2023-04-03T15:14:22;100391.31;;;7.40
24740;BMP280;45234;48.148;17.128;2023-04-03T15:17:03;100394.69;;;7.32
24740;BMP280;45234;48.148;17.128;2023-04-03T15:19:37;100388.84;;;7.22
24740;BMP280;45234;48.148;17.128;2023-04-03T15:22:04;100395.94;;;6.96
24740;BMP280;45234;48.148;17.128;2023-04-03T15:24:31;100412.06;;;7.14
24740;BMP280;45234;48.148;17.128;2023-04-03T15:26:58;100412.53;;;7.02
24740;BMP280;45234;48.148;17.128;2023-04-03T15:29:26;100400.47;;;7.18
24740;BMP280;45234;48.148;17.128;2023-04-03T15:31:53;100397.44;;;7.47
24740;BMP280;45234;48.148;17.128;2023-04-03T15:34:20;100413.72;;;7.40
24740;BMP280;45234;48.148;17.128;2023-04-03T15:36:49;100403.06;;;7.18
24740;BMP280;45234;48.148;17.128;2023-04-03T15:39:16;100405.31;;;7.21
24740;BMP280;45234;48.148;17.128;2023-04-03T15:41:43;100402.16;;;6.85
24740;BMP280;45234;48.148;17.128;2023-04-03T15:44:11;100429.75;;;6.93
24740;BMP280;45234;48.148;17.128;2023-04-03T15:46:41;100430.91;;;7.07
24740;BMP280;45234;48.148;17.128;2023-04-03T15:49:08;100412.78;;;6.82
24740;BMP280;45234;48.148;17.128;2023-04-03T15:51:36;100421.16;;;6.84
24740;BMP280;45234;48.148;17.128;2023-04-03T15:54:03;100415.38;;;6.90
24740;BMP280;45234;48.148;17.128;2023-04-03T15:56:29;100397.63;;;6.79
24740;BMP280;45234;48.148;17.128;2023-04-03T15:58:56;100424.34;;;6.70
24740;BMP280;45234;48.148;17.128;2023-04-03T16:01:25;100428.41;;;6.81
24740;BMP280;45234;48.148;17.128;2023-04-03T16:03:52;100429.22;;;6.81